sensor_id;sensor_type;location;lat;lon;timestamp;P1;durP1;ratioP1;P2;durP2;ratioP2
1747;SDS011;871;47.034;15.394;2023-01-05T05:02:34;38.67;;;13.65;;
1747;SDS011;871;47.034;15.394;2023-01-05T05:05:00;37.80;;;13.07;;
1747;SDS011;871;47.034;15.394;2023-01-05T05:07:26;41.33;;;15.23;;
1747;SDS011;871;47.034;15.394;2023-01-05T05:09:52;41.05;;;14.60;;
1747;SDS011;871;47.034;15.394;2023-01-05T05:12:18;42.58;;;15.10;;
1747;SDS011;871;47.034;15.394;2023-01-05T05:14:47;40.20;;;14.93;;
1747;SDS011;871;47.034;15.394;2023-01-05T05:17:14;41.80;;;15.40;;
1747;SDS011;871;47.034;15.394;2023-01-05T05:19:40;43.55;;;14.98;;
1747;SDS011;871;47.034;15.394;2023-01-05T05:22:06;41.70;;;15.52;;
1747;SDS011;871;47.034;15.394;2023-01-05T05:24:32;36.20;;;12.60;;
1747;SDS011;871;47.034;15.394;2023-01-05T05:26:58;39.38;;;14.07;;
1747;SDS011;871;47.034;15.394;2023-01-05T05:29:24;40.90;;;16.27;;
1747;SDS011;871;47.034;15.394;2023-01-05T05:31:50;41.07;;;15.57;;
1747;SDS011;871;47.034;15.394;2023-01-05T05:34:17;44.67;;;15.05;;
1747;SDS011;871;47.034;15.394;2023-01-05T05:36:43;38.70;;;14.65;;
1747;SDS011;871;47.034;15.394;2023-01-05T05:39:12;43.90;;;16.15;;
1747;SDS011;871;47.034;15.394;2023-01-05T05:41:39;44.22;;;15.88;;
1747;SDS011;871;47.034;15.394;2023-01-05T05:44:05;48.40;;;17.73;;
1747;SDS011;871;47.034;15.394;2023-01-05T05:46:32;46.63;;;15.75;;
1747;SDS011;871;47.034;15.394;2023-01-05T05:48:58;47.30;;;14.98;;
1747;SDS011;871;47.034;15.394;2023-01-05T05:51:24;46.40;;;15.57;;
1747;SDS011;871;47.034;15.394;2023-01-05T05:53:51;49.33;;;16.40;;
1747;SDS011;871;47.034;15.394;2023-01-05T05:56:17;49.28;;;16.83;;
1747;SDS011;871;47.034;15.394;2023-01-05T05:58:43;50.67;;;17.70;;
1747;SDS011;871;47.034;15.394;2023-01-05T06:01:10;51.60;;;16.35;;
1747;SDS011;871;47.034;15.394;2023-01-05T06:03:36;54.80;;;17.60;;
1747;SDS011;871;47.034;15.394;2023-01-05T06:06:03;50.70;;;15.80;;
1747;SDS011;871;47.034;15.394;2023-01-05T06:08:29;53.60;;;17.85;;
1747;SDS011;871;47.034;15.394;2023-01-05T06:10:55;51.10;;;17.08;;
1747;SDS011;871;47.034;15.394;2023-01-05T06:13:21;57.90;;;17.48;;
1747;SDS011;871;47.034;15.394;2023-01-05T06:15:47;53.83;;;17.70;;
1747;SDS011;871;47.034;15.394;2023-01-05T06:18:13;54.10;;;17.20;;
1747;SDS011;871;47.034;15.394;2023-01-05T06:20:40;49.38;;;16.05;;
1747;SDS011;871;47.034;15.394;2023-01-05T06:23:06;51.90;;;18.75;;
1747;SDS011;871;47.034;15.394;2023-01-05T06:25:33;53.90;;;17.20;;
1747;SDS011;871;47.034;15.394;2023-01-05T06:27:59;52.10;;;16.35;;
1747;SDS011;871;47.034;15.394;2023-01-05T06:30:26;49.03;;;16.58;;
1747;SDS011;871;47.034;15.394;2023-01-05T06:32:52;54.20;;;17.25;;
1747;SDS011;871;47.034;15.394;2023-01-05T06:35:18;49.40;;;15.90;;
1747;SDS011;871;47.034;15.394;2023-01-05T06:37:44;51.33;;;16.77;;
1747;SDS011;871;47.034;15.394;2023-01-05T06:40:10;47.75;;;16.02;;
1747;SDS011;871;47.034;15.394;2023-01-05T06:42:37;49.45;;;16.40;;
1747;SDS011;871;47.034;15.394;2023-01-05T06:45:04;58.17;;;20.15;;
1747;SDS011;871;47.034;15.394;2023-01-05T06:47:30;57.78;;;17.73;;
1747;SDS011;871;47.034;15.394;2023-01-05T06:49:56;52.15;;;16.58;;
1747;SDS011;871;47.034;15.394;2023-01-05T06:52:22;52.85;;;18.17;;
1747;SDS011;871;47.034;15.394;2023-01-05T06:54:48;50.40;;;15.60;;
1747;SDS011;871;47.034;15.394;2023-01-05T06:57:14;53.95;;;17.58;;
1747;SDS011;871;47.034;15.394;2023-01-05T06:59:40;52.47;;;18.63;;
1747;SDS011;871;47.034;15.394;2023-01-05T07:02:12;50.25;;;16.48;;
1747;SDS011;871;47.034;15.394;2023-01-05T07:04:38;52.65;;;16.88;;
1747;SDS011;871;47.034;15.394;2023-01-05T07:07:04;49.17;;;16.30;;
1747;SDS011;871;47.034;15.394;2023-01-05T07:09:30;52.83;;;20.30;;
1747;SDS011;871;47.034;15.394;2023-01-05T07:11:56;53.20;;;17.80;;
1747;SDS011;871;47.034;15.394;2023-01-05T07:14:23;52.55;;;16.75;;
1747;SDS011;871;47.034;15.394;2023-01-05T07:16:49;50.42;;;17.38;;
1747;SDS011;871;47.034;15.394;2023-01-05T07:19:17;47.53;;;15.13;;
1747;SDS011;871;47.034;15.394;2023-01-05T07:21:43;47.80;;;16.58;;
1747;SDS011;871;47.034;15.394;2023-01-05T07:24:09;46.10;;;16.27;;
1747;SDS011;871;47.034;15.394;2023-01-05T07:26:35;49.63;;;15.80;;
1747;SDS011;871;47.034;15.394;2023-01-05T07:29:01;47.90;;;15.73;;
1747;SDS011;871;47.034;15.394;2023-01-05T07:31:27;49.30;;;15.00;;
1747;SDS011;871;47.034;15.394;2023-01-05T07:33:53;49.40;;;16.30;;
1747;SDS011;871;47.034;15.394;2023-01-05T07:36:19;48.80;;;17.48;;
1747;SDS011;871;47.034;15.394;2023-01-05T07:38:46;49.70;;;14.90;;
1747;SDS011;871;47.034;15.394;2023-01-05T07:41:12;50.17;;;15.47;;
1747;SDS011;871;47.034;15.394;2023-01-05T07:43:39;48.15;;;16.15;;
1747;SDS011;871;47.034;15.394;2023-01-05T07:46:05;51.83;;;17.20;;
1747;SDS011;871;47.034;15.394;2023-01-05T07:48:31;49.38;;;16.38;;
1747;SDS011;871;47.034;15.394;2023-01-05T07:51:01;51.90;;;17.90;;
1747;SDS011;871;47.034;15.394;2023-01-05T07:53:28;50.30;;;16.90;;
1747;SDS011;871;47.034;15.394;2023-01-05T07:55:55;48.53;;;16.80;;
1747;SDS011;871;47.034;15.394;2023-01-05T07:58:22;49.77;;;14.57;;
1747;SDS011;871;47.034;15.394;2023-01-05T08:00:48;46.25;;;15.32;;
1747;SDS011;871;47.034;15.394;2023-01-05T08:03:14;48.72;;;16.90;;
1747;SDS011;871;47.034;15.394;2023-01-05T08:05:40;44.60;;;14.40;;
1747;SDS011;871;47.034;15.394;2023-01-05T08:08:06;47.13;;;15.97;;
1747;SDS011;871;47.034;15.394;2023-01-05T08:10:32;52.83;;;14.57;;
1747;SDS011;871;47.034;15.394;2023-01-05T08:13:02;47.80;;;14.40;;
1747;SDS011;871;47.034;15.394;2023-01-05T08:15:47;46.40;;;13.13;;
1747;SDS011;871;47.034;15.394;2023-01-05T08:18:13;47.13;;;13.63;;
1747;SDS011;871;47.034;15.394;2023-01-05T08:20:39;49.57;;;12.80;;
1747;SDS011;871;47.034;15.394;2023-01-05T08:23:05;50.93;;;12.73;;
1747;SDS011;871;47.034;15.394;2023-01-05T08:25:31;45.57;;;12.23;;
1747;SDS011;871;47.034;15.394;2023-01-05T08:27:58;51.70;;;12.90;;
1747;SDS011;871;47.034;15.394;2023-01-05T08:30:24;47.83;;;13.90;;
1747;SDS011;871;47.034;15.394;2023-01-05T08:32:50;51.93;;;13.87;;
1747;SDS011;871;47.034;15.394;2023-01-05T08:35:16;47.50;;;13.03;;
1747;SDS011;871;47.034;15.394;2023-01-05T08:37:43;48.00;;;13.10;;
1747;SDS011;871;47.034;15.394;2023-01-05T08:40:10;53.37;;;15.33;;
1747;SDS011;871;47.034;15.394;2023-01-05T08:42:36;50.67;;;15.53;;
1747;SDS011;871;47.034;15.394;2023-01-05T08:45:02;47.23;;;14.07;;
1747;SDS011;871;47.034;15.394;2023-01-05T08:47:29;49.40;;;13.20;;
1747;SDS011;871;47.034;15.394;2023-01-05T08:49:56;44.80;;;10.40;;
1747;SDS011;871;47.034;15.394;2023-01-05T08:52:22;45.20;;;9.60;;
1747;SDS011;871;47.034;15.394;2023-01-05T08:54:48;45.10;;;9.00;;
1747;SDS011;871;47.034;15.394;2023-01-05T08:57:14;46.77;;;8.90;;
1747;SDS011;871;47.034;15.394;2023-01-05T08:59:40;51.10;;;11.50;;
1747;SDS011;871;47.034;15.394;2023-01-05T09:02:10;47.30;;;9.93;;
1747;SDS011;871;47.034;15.394;2023-01-05T09:04:38;44.43;;;9.23;;
1747;SDS011;871;47.034;15.394;2023-01-05T09:07:04;44.50;;;7.80;;
1747;SDS011;871;47.034;15.394;2023-01-05T09:09:30;45.20;;;8.40;;
1747;SDS011;871;47.034;15.394;2023-01-05T09:11:56;48.10;;;10.00;;
1747;SDS011;871;47.034;15.394;2023-01-05T09:14:22;44.43;;;8.83;;
1747;SDS011;871;47.034;15.394;2023-01-05T09:16:48;48.70;;;11.30;;
1747;SDS011;871;47.034;15.394;2023-01-05T09:19:14;49.57;;;11.07;;
1747;SDS011;871;47.034;15.394;2023-01-05T09:21:40;47.77;;;11.67;;
1747;SDS011;871;47.034;15.394;2023-01-05T09:24:06;47.13;;;9.70;;
1747;SDS011;871;47.034;15.394;2023-01-05T09:26:35;48.03;;;9.40;;
1747;SDS011;871;47.034;15.394;2023-01-05T09:29:03;49.73;;;10.70;;
1747;SDS011;871;47.034;15.394;2023-01-05T09:31:29;47.00;;;9.33;;
1747;SDS011;871;47.034;15.394;2023-01-05T09:33:55;45.20;;;8.40;;
1747;SDS011;871;47.034;15.394;2023-01-05T09:36:22;47.20;;;9.23;;
1747;SDS011;871;47.034;15.394;2023-01-05T09:38:50;47.30;;;9.67;;
1747;SDS011;871;47.034;15.394;2023-01-05T09:41:37;50.43;;;9.73;;
1747;SDS011;871;47.034;15.394;2023-01-05T09:44:04;50.40;;;9.80;;
1747;SDS011;871;47.034;15.394;2023-01-05T09:46:34;48.30;;;10.60;;
1747;SDS011;871;47.034;15.394;2023-01-05T09:49:02;46.17;;;9.43;;
1747;SDS011;871;47.034;15.394;2023-01-05T09:51:29;47.77;;;8.70;;
1747;SDS011;871;47.034;15.394;2023-01-05T09:53:55;47.20;;;9.33;;
1747;SDS011;871;47.034;15.394;2023-01-05T09:56:26;48.70;;;11.00;;
1747;SDS011;871;47.034;15.394;2023-01-05T09:58:55;50.03;;;11.20;;
1747;SDS011;871;47.034;15.394;2023-01-05T10:01:24;48.50;;;9.60;;
1747;SDS011;871;47.034;15.394;2023-01-05T10:06:19;47.17;;;9.73;;
1747;SDS011;871;47.034;15.394;2023-01-05T10:08:47;47.47;;;9.10;;
1747;SDS011;871;47.034;15.394;2023-01-05T10:11:35;48.50;;;9.30;;
1747;SDS011;871;47.034;15.394;2023-01-05T10:14:23;48.87;;;9.83;;
1747;SDS011;871;47.034;15.394;2023-01-05T10:16:51;51.70;;;10.63;;
1747;SDS011;871;47.034;15.394;2023-01-05T10:19:17;51.47;;;8.53;;
1747;SDS011;871;47.034;15.394;2023-01-05T10:27:16;47.30;;;9.47;;
1747;SDS011;871;47.034;15.394;2023-01-05T10:29:43;49.13;;;11.83;;
1747;SDS011;871;47.034;15.394;2023-01-05T10:32:28;52.10;;;13.17;;
1747;SDS011;871;47.034;15.394;2023-01-05T10:34:59;50.77;;;13.67;;
1747;SDS011;871;47.034;15.394;2023-01-05T10:42:39;52.90;;;13.97;;
1747;SDS011;871;47.034;15.394;2023-01-05T10:45:08;53.67;;;13.73;;
1747;SDS011;871;47.034;15.394;2023-01-05T10:47:35;59.30;;;16.20;;
1747;SDS011;871;47.034;15.394;2023-01-05T10:50:02;58.07;;;17.60;;
1747;SDS011;871;47.034;15.394;2023-01-05T10:52:29;56.03;;;16.30;;
1747;SDS011;871;47.034;15.394;2023-01-05T11:00:04;54.40;;;13.20;;
1747;SDS011;871;47.034;15.394;2023-01-05T11:02:31;52.13;;;12.70;;
1747;SDS011;871;47.034;15.394;2023-01-05T11:05:47;60.37;;;12.67;;
1747;SDS011;871;47.034;15.394;2023-01-05T11:07:50;50.03;;;13.10;;
1747;SDS011;871;47.034;15.394;2023-01-05T11:10:27;49.93;;;13.20;;
1747;SDS011;871;47.034;15.394;2023-01-05T11:15:27;50.53;;;11.20;;
1747;SDS011;871;47.034;15.394;2023-01-05T11:17:53;58.53;;;11.20;;
1747;SDS011;871;47.034;15.394;2023-01-05T11:20:19;50.87;;;12.43;;
1747;SDS011;871;47.034;15.394;2023-01-05T11:22:46;50.57;;;10.63;;
1747;SDS011;871;47.034;15.394;2023-01-05T11:27:42;47.50;;;11.03;;
1747;SDS011;871;47.034;15.394;2023-01-05T11:32:41;47.90;;;10.60;;
1747;SDS011;871;47.034;15.394;2023-01-05T11:38:25;55.83;;;12.03;;
1747;SDS011;871;47.034;15.394;2023-01-05T11:40:52;47.60;;;10.50;;
1747;SDS011;871;47.034;15.394;2023-01-05T11:43:20;52.93;;;11.57;;
1747;SDS011;871;47.034;15.394;2023-01-05T11:45:52;47.50;;;10.40;;
1747;SDS011;871;47.034;15.394;2023-01-05T11:48:20;48.53;;;10.80;;
1747;SDS011;871;47.034;15.394;2023-01-05T11:53:35;48.50;;;10.70;;
1747;SDS011;871;47.034;15.394;2023-01-05T11:58:26;54.27;;;12.40;;
1747;SDS011;871;47.034;15.394;2023-01-05T12:03:27;61.27;;;11.20;;
1747;SDS011;871;47.034;15.394;2023-01-05T12:05:59;50.73;;;9.70;;
1747;SDS011;871;47.034;15.394;2023-01-05T12:08:30;52.87;;;11.70;;
1747;SDS011;871;47.034;15.394;2023-01-05T12:13:48;48.40;;;10.90;;
1747;SDS011;871;47.034;15.394;2023-01-05T12:19:18;50.37;;;11.57;;
1747;SDS011;871;47.034;15.394;2023-01-05T12:21:35;50.50;;;11.07;;
1747;SDS011;871;47.034;15.394;2023-01-05T12:26:37;48.63;;;10.90;;
1747;SDS011;871;47.034;15.394;2023-01-05T12:37:18;51.57;;;12.27;;
1747;SDS011;871;47.034;15.394;2023-01-05T12:39:48;51.53;;;11.23;;
1747;SDS011;871;47.034;15.394;2023-01-05T12:52:45;48.70;;;10.93;;
1747;SDS011;871;47.034;15.394;2023-01-05T12:57:42;48.27;;;11.40;;
1747;SDS011;871;47.034;15.394;2023-01-05T13:00:17;51.40;;;11.53;;
1747;SDS011;871;47.034;15.394;2023-01-05T13:10:44;48.30;;;10.47;;
1747;SDS011;871;47.034;15.394;2023-01-05T13:13:16;48.80;;;7.97;;
1747;SDS011;871;47.034;15.394;2023-01-05T13:18:29;36.97;;;1.43;;
1747;SDS011;871;47.034;15.394;2023-01-05T13:20:57;36.87;;;2.10;;
1747;SDS011;871;47.034;15.394;2023-01-05T13:24:00;38.10;;;2.40;;
1747;SDS011;871;47.034;15.394;2023-01-05T13:26:18;38.50;;;1.60;;
1747;SDS011;871;47.034;15.394;2023-01-05T13:28:50;37.33;;;1.80;;
1747;SDS011;871;47.034;15.394;2023-01-05T13:44:04;43.93;;;4.67;;
1747;SDS011;871;47.034;15.394;2023-01-05T13:51:58;42.70;;;6.20;;
1747;SDS011;871;47.034;15.394;2023-01-05T13:54:44;42.47;;;6.10;;
1747;SDS011;871;47.034;15.394;2023-01-05T13:57:18;42.87;;;5.70;;
1747;SDS011;871;47.034;15.394;2023-01-05T14:02:45;45.07;;;6.17;;
1747;SDS011;871;47.034;15.394;2023-01-05T14:05:22;42.97;;;6.13;;
1747;SDS011;871;47.034;15.394;2023-01-05T14:07:49;45.70;;;6.30;;
1747;SDS011;871;47.034;15.394;2023-01-05T14:10:24;45.43;;;7.20;;
1747;SDS011;871;47.034;15.394;2023-01-05T14:12:51;42.63;;;6.13;;
1747;SDS011;871;47.034;15.394;2023-01-05T14:20:38;43.47;;;5.73;;
1747;SDS011;871;47.034;15.394;2023-01-05T14:25:53;42.17;;;4.90;;
1747;SDS011;871;47.034;15.394;2023-01-05T14:28:21;42.70;;;5.80;;
1747;SDS011;871;47.034;15.394;2023-01-05T14:30:48;58.93;;;9.90;;
1747;SDS011;871;47.034;15.394;2023-01-05T14:33:16;50.20;;;7.97;;
1747;SDS011;871;47.034;15.394;2023-01-05T14:35:42;46.97;;;7.23;;
1747;SDS011;871;47.034;15.394;2023-01-05T14:38:24;45.63;;;6.40;;
1747;SDS011;871;47.034;15.394;2023-01-05T14:40:51;55.47;;;8.60;;
1747;SDS011;871;47.034;15.394;2023-01-05T14:46:02;45.70;;;5.60;;
1747;SDS011;871;47.034;15.394;2023-01-05T14:48:33;40.20;;;3.63;;
1747;SDS011;871;47.034;15.394;2023-01-05T14:51:33;38.37;;;2.93;;
1747;SDS011;871;47.034;15.394;2023-01-05T14:53:54;42.00;;;2.73;;
1747;SDS011;871;47.034;15.394;2023-01-05T14:56:24;38.90;;;2.30;;
1747;SDS011;871;47.034;15.394;2023-01-05T14:59:10;39.17;;;2.23;;
1747;SDS011;871;47.034;15.394;2023-01-05T15:01:41;37.53;;;2.20;;
1747;SDS011;871;47.034;15.394;2023-01-05T15:04:17;41.07;;;2.47;;
1747;SDS011;871;47.034;15.394;2023-01-05T15:12:39;37.57;;;1.80;;
1747;SDS011;871;47.034;15.394;2023-01-05T15:33:11;39.80;;;3.07;;
1747;SDS011;871;47.034;15.394;2023-01-05T15:35:42;40.60;;;3.37;;
1747;SDS011;871;47.034;15.394;2023-01-05T15:38:19;41.47;;;3.10;;
1747;SDS011;871;47.034;15.394;2023-01-05T15:40:46;41.10;;;2.13;;
1747;SDS011;871;47.034;15.394;2023-01-05T15:43:13;39.00;;;3.10;;
1747;SDS011;871;47.034;15.394;2023-01-05T15:45:40;39.07;;;2.90;;
1747;SDS011;871;47.034;15.394;2023-01-05T15:48:29;39.17;;;2.70;;
1747;SDS011;871;47.034;15.394;2023-01-05T15:50:54;39.87;;;3.07;;
1747;SDS011;871;47.034;15.394;2023-01-05T15:55:47;41.20;;;3.20;;
1747;SDS011;871;47.034;15.394;2023-01-05T15:58:16;43.63;;;3.57;;
1747;SDS011;871;47.034;15.394;2023-01-05T16:00:42;41.77;;;4.73;;
1747;SDS011;871;47.034;15.394;2023-01-05T16:03:18;40.13;;;4.17;;
1747;SDS011;871;47.034;15.394;2023-01-05T16:05:44;43.77;;;6.70;;
1747;SDS011;871;47.034;15.394;2023-01-05T16:08:12;39.97;;;4.87;;
1747;SDS011;871;47.034;15.394;2023-01-05T16:10:46;40.70;;;4.70;;
1747;SDS011;871;47.034;15.394;2023-01-05T16:13:25;41.37;;;5.50;;
1747;SDS011;871;47.034;15.394;2023-01-05T16:15:53;42.80;;;5.40;;
1747;SDS011;871;47.034;15.394;2023-01-05T16:18:27;42.67;;;5.40;;
1747;SDS011;871;47.034;15.394;2023-01-05T16:20:54;40.77;;;4.80;;
1747;SDS011;871;47.034;15.394;2023-01-05T16:23:30;46.47;;;7.23;;
1747;SDS011;871;47.034;15.394;2023-01-05T16:25:58;45.67;;;7.00;;
1747;SDS011;871;47.034;15.394;2023-01-05T16:28:26;54.20;;;12.70;;
1747;SDS011;871;47.034;15.394;2023-01-05T16:30:52;48.13;;;8.93;;
1747;SDS011;871;47.034;15.394;2023-01-05T16:35:46;47.30;;;8.30;;
1747;SDS011;871;47.034;15.394;2023-01-05T16:38:14;47.13;;;8.50;;
1747;SDS011;871;47.034;15.394;2023-01-05T16:45:44;54.47;;;10.13;;
1747;SDS011;871;47.034;15.394;2023-01-05T16:48:42;50.30;;;8.73;;
1747;SDS011;871;47.034;15.394;2023-01-05T16:50:56;44.50;;;7.40;;
1747;SDS011;871;47.034;15.394;2023-01-05T16:53:23;48.90;;;8.00;;
1747;SDS011;871;47.034;15.394;2023-01-05T16:55:50;45.70;;;8.20;;
1747;SDS011;871;47.034;15.394;2023-01-05T16:58:37;47.17;;;7.63;;
1747;SDS011;871;47.034;15.394;2023-01-05T17:03:38;44.53;;;7.53;;
1747;SDS011;871;47.034;15.394;2023-01-05T17:06:04;51.03;;;9.30;;
1747;SDS011;871;47.034;15.394;2023-01-05T17:08:31;47.03;;;8.87;;
1747;SDS011;871;47.034;15.394;2023-01-05T17:11:00;45.63;;;7.60;;
1747;SDS011;871;47.034;15.394;2023-01-05T17:13:37;44.33;;;5.83;;
1747;SDS011;871;47.034;15.394;2023-01-05T17:16:05;45.30;;;5.30;;
1747;SDS011;871;47.034;15.394;2023-01-05T17:18:31;42.27;;;5.97;;
1747;SDS011;871;47.034;15.394;2023-01-05T17:20:57;46.50;;;5.97;;
1747;SDS011;871;47.034;15.394;2023-01-05T17:23:30;40.50;;;5.00;;
1747;SDS011;871;47.034;15.394;2023-01-05T17:25:57;43.40;;;4.97;;
1747;SDS011;871;47.034;15.394;2023-01-05T17:28:24;42.43;;;5.30;;
1747;SDS011;871;47.034;15.394;2023-01-05T17:30:51;42.80;;;5.30;;
1747;SDS011;871;47.034;15.394;2023-01-05T17:33:17;43.07;;;3.50;;
1747;SDS011;871;47.034;15.394;2023-01-05T17:35:43;39.10;;;3.43;;
1747;SDS011;871;47.034;15.394;2023-01-05T17:38:11;38.30;;;2.80;;
1747;SDS011;871;47.034;15.394;2023-01-05T17:40:37;40.57;;;3.33;;
1747;SDS011;871;47.034;15.394;2023-01-05T17:43:03;38.07;;;2.90;;
1747;SDS011;871;47.034;15.394;2023-01-05T17:45:29;38.40;;;2.47;;
1747;SDS011;871;47.034;15.394;2023-01-05T17:47:56;41.43;;;2.50;;
1747;SDS011;871;47.034;15.394;2023-01-05T17:50:23;42.33;;;4.80;;
1747;SDS011;871;47.034;15.394;2023-01-05T17:52:51;42.17;;;5.40;;
1747;SDS011;871;47.034;15.394;2023-01-05T17:55:17;40.80;;;4.30;;
1747;SDS011;871;47.034;15.394;2023-01-05T17:57:45;42.83;;;6.10;;
1747;SDS011;871;47.034;15.394;2023-01-05T18:00:12;43.00;;;6.30;;
1747;SDS011;871;47.034;15.394;2023-01-05T18:02:38;42.13;;;6.80;;
1747;SDS011;871;47.034;15.394;2023-01-05T18:05:05;45.90;;;7.37;;
1747;SDS011;871;47.034;15.394;2023-01-05T18:07:31;42.17;;;6.27;;
1747;SDS011;871;47.034;15.394;2023-01-05T18:09:58;42.00;;;5.70;;
1747;SDS011;871;47.034;15.394;2023-01-05T18:12:24;43.73;;;6.30;;
1747;SDS011;871;47.034;15.394;2023-01-05T18:14:50;43.00;;;6.90;;
1747;SDS011;871;47.034;15.394;2023-01-05T18:17:17;43.80;;;7.17;;
1747;SDS011;871;47.034;15.394;2023-01-05T18:19:43;44.30;;;7.33;;
1747;SDS011;871;47.034;15.394;2023-01-05T18:22:09;43.73;;;7.10;;
1747;SDS011;871;47.034;15.394;2023-01-05T18:24:37;44.80;;;7.43;;
1747;SDS011;871;47.034;15.394;2023-01-05T18:27:03;43.50;;;7.37;;
1747;SDS011;871;47.034;15.394;2023-01-05T18:29:34;44.07;;;8.50;;
1747;SDS011;871;47.034;15.394;2023-01-05T18:32:01;45.27;;;7.73;;
1747;SDS011;871;47.034;15.394;2023-01-05T18:34:29;46.33;;;7.97;;
1747;SDS011;871;47.034;15.394;2023-01-05T18:36:55;43.13;;;7.37;;
1747;SDS011;871;47.034;15.394;2023-01-05T18:39:22;46.60;;;8.80;;
1747;SDS011;871;47.034;15.394;2023-01-05T18:41:50;43.80;;;7.30;;
1747;SDS011;871;47.034;15.394;2023-01-05T18:44:16;41.97;;;7.00;;
1747;SDS011;871;47.034;15.394;2023-01-05T18:46:42;46.70;;;7.77;;
1747;SDS011;871;47.034;15.394;2023-01-05T18:49:09;44.03;;;8.93;;
1747;SDS011;871;47.034;15.394;2023-01-05T18:51:39;44.97;;;7.80;;
1747;SDS011;871;47.034;15.394;2023-01-05T18:54:05;47.83;;;7.40;;
1747;SDS011;871;47.034;15.394;2023-01-05T18:56:32;43.10;;;7.33;;
1747;SDS011;871;47.034;15.394;2023-01-05T18:58:58;43.10;;;7.60;;
1747;SDS011;871;47.034;15.394;2023-01-05T19:01:24;42.23;;;7.43;;
1747;SDS011;871;47.034;15.394;2023-01-05T19:03:51;42.17;;;7.60;;
1747;SDS011;871;47.034;15.394;2023-01-05T19:06:18;43.47;;;8.13;;
1747;SDS011;871;47.034;15.394;2023-01-05T19:08:45;42.60;;;6.93;;
1747;SDS011;871;47.034;15.394;2023-01-05T19:11:25;44.47;;;8.50;;
1747;SDS011;871;47.034;15.394;2023-01-05T19:13:56;42.77;;;7.87;;
1747;SDS011;871;47.034;15.394;2023-01-05T19:16:23;45.17;;;7.77;;
1747;SDS011;871;47.034;15.394;2023-01-05T19:18:52;44.60;;;8.07;;
1747;SDS011;871;47.034;15.394;2023-01-05T19:21:19;44.30;;;7.97;;
1747;SDS011;871;47.034;15.394;2023-01-05T19:23:46;44.47;;;7.60;;
1747;SDS011;871;47.034;15.394;2023-01-05T19:26:13;46.47;;;8.70;;
1747;SDS011;871;47.034;15.394;2023-01-05T19:28:39;42.07;;;7.27;;
1747;SDS011;871;47.034;15.394;2023-01-05T19:31:06;44.17;;;8.53;;
1747;SDS011;871;47.034;15.394;2023-01-05T19:33:33;44.80;;;8.23;;
1747;SDS011;871;47.034;15.394;2023-01-05T19:36:09;45.07;;;8.77;;
1747;SDS011;871;47.034;15.394;2023-01-05T19:38:36;44.93;;;8.53;;
1747;SDS011;871;47.034;15.394;2023-01-05T19:41:03;46.87;;;8.50;;
1747;SDS011;871;47.034;15.394;2023-01-05T19:43:31;42.13;;;8.10;;
1747;SDS011;871;47.034;15.394;2023-01-05T19:45:58;45.27;;;8.70;;
1747;SDS011;871;47.034;15.394;2023-01-05T19:48:24;46.13;;;9.13;;
1747;SDS011;871;47.034;15.394;2023-01-05T19:51:00;46.37;;;9.10;;
1747;SDS011;871;47.034;15.394;2023-01-05T19:53:26;43.47;;;7.93;;
1747;SDS011;871;47.034;15.394;2023-01-05T19:55:52;48.93;;;9.47;;
1747;SDS011;871;47.034;15.394;2023-01-05T19:58:19;44.43;;;8.80;;
1747;SDS011;871;47.034;15.394;2023-01-05T20:00:45;44.00;;;7.97;;
1747;SDS011;871;47.034;15.394;2023-01-05T20:03:11;47.07;;;8.80;;
1747;SDS011;871;47.034;15.394;2023-01-05T20:05:37;42.00;;;7.63;;
1747;SDS011;871;47.034;15.394;2023-01-05T20:08:04;41.70;;;7.17;;
1747;SDS011;871;47.034;15.394;2023-01-05T20:10:30;42.13;;;7.37;;
1747;SDS011;871;47.034;15.394;2023-01-05T20:12:57;43.50;;;7.70;;
1747;SDS011;871;47.034;15.394;2023-01-05T20:15:23;45.70;;;7.43;;
1747;SDS011;871;47.034;15.394;2023-01-05T20:17:50;43.80;;;7.80;;
1747;SDS011;871;47.034;15.394;2023-01-05T20:20:16;42.67;;;8.13;;
1747;SDS011;871;47.034;15.394;2023-01-05T20:22:42;44.80;;;9.47;;
1747;SDS011;871;47.034;15.394;2023-01-05T20:25:08;46.67;;;10.10;;
1747;SDS011;871;47.034;15.394;2023-01-05T20:27:35;49.80;;;9.77;;
1747;SDS011;871;47.034;15.394;2023-01-05T20:30:02;44.80;;;8.60;;
1747;SDS011;871;47.034;15.394;2023-01-05T20:32:28;46.50;;;9.77;;
1747;SDS011;871;47.034;15.394;2023-01-05T20:34:55;44.10;;;8.37;;
1747;SDS011;871;47.034;15.394;2023-01-05T20:37:24;44.47;;;8.27;;
1747;SDS011;871;47.034;15.394;2023-01-05T20:39:53;44.73;;;8.53;;
1747;SDS011;871;47.034;15.394;2023-01-05T20:42:19;44.07;;;8.17;;
1747;SDS011;871;47.034;15.394;2023-01-05T20:44:45;44.70;;;8.37;;
1747;SDS011;871;47.034;15.394;2023-01-05T20:47:12;45.97;;;8.30;;
1747;SDS011;871;47.034;15.394;2023-01-05T20:49:39;45.37;;;8.30;;
1747;SDS011;871;47.034;15.394;2023-01-05T20:52:06;48.17;;;8.73;;
1747;SDS011;871;47.034;15.394;2023-01-05T20:54:33;44.63;;;9.27;;
1747;SDS011;871;47.034;15.394;2023-01-05T20:56:59;47.23;;;7.97;;
1747;SDS011;871;47.034;15.394;2023-01-05T20:59:26;50.27;;;9.07;;
1747;SDS011;871;47.034;15.394;2023-01-05T21:01:54;45.20;;;9.07;;
1747;SDS011;871;47.034;15.394;2023-01-05T21:04:20;45.70;;;8.63;;
1747;SDS011;871;47.034;15.394;2023-01-05T21:06:47;46.83;;;9.63;;
1747;SDS011;871;47.034;15.394;2023-01-05T21:09:15;44.50;;;8.50;;
1747;SDS011;871;47.034;15.394;2023-01-05T21:11:42;43.47;;;8.70;;
1747;SDS011;871;47.034;15.394;2023-01-05T21:14:08;47.10;;;9.73;;
1747;SDS011;871;47.034;15.394;2023-01-05T21:16:36;45.47;;;9.93;;
1747;SDS011;871;47.034;15.394;2023-01-05T21:19:02;45.60;;;9.13;;
1747;SDS011;871;47.034;15.394;2023-01-05T21:21:29;45.97;;;9.20;;
1747;SDS011;871;47.034;15.394;2023-01-05T21:23:55;44.10;;;8.90;;
1747;SDS011;871;47.034;15.394;2023-01-05T21:26:22;47.87;;;9.50;;
1747;SDS011;871;47.034;15.394;2023-01-05T21:28:49;47.87;;;9.57;;
1747;SDS011;871;47.034;15.394;2023-01-05T21:31:16;47.67;;;9.73;;
1747;SDS011;871;47.034;15.394;2023-01-05T21:33:43;46.43;;;10.20;;
1747;SDS011;871;47.034;15.394;2023-01-05T21:36:17;48.40;;;9.97;;
1747;SDS011;871;47.034;15.394;2023-01-05T21:38:47;48.50;;;9.50;;
1747;SDS011;871;47.034;15.394;2023-01-05T21:41:13;45.03;;;9.67;;
1747;SDS011;871;47.034;15.394;2023-01-05T21:43:41;44.83;;;9.13;;
1747;SDS011;871;47.034;15.394;2023-01-05T21:46:08;47.57;;;9.30;;
1747;SDS011;871;47.034;15.394;2023-01-05T21:48:36;46.37;;;9.67;;
1747;SDS011;871;47.034;15.394;2023-01-05T21:51:03;45.77;;;10.00;;
1747;SDS011;871;47.034;15.394;2023-01-05T21:53:48;44.87;;;8.87;;
1747;SDS011;871;47.034;15.394;2023-01-05T21:56:36;51.03;;;10.97;;
